Time;durP1;ratioP1;P1;durP2;ratioP2;P2;SDS_P1;SDS_P2;PMS_P1;PMS_P2;Temp;Humidity;BMP_temperature;BMP_pressure;BME280_temperature;BME280_humidity;BME280_pressure;Samples;Min_cycle;Max_cycle;Signal;HPM_P1;HPM_P2
2022/07/10 00:02:21;;;;;;;11.22;7.45;;;;;;;20.45;68.16;99738.67;1799409;79;21204;-53
2022/07/10 00:05:29;;;;;;;7.97;7.15;;;;;;;20.38;68.16;99749.13;1799780;79;21221;-54
2022/07/10 00:08:35;;;;;;;9.15;7.17;;;;;;;20.32;68.25;99758.48;1799232;80;21181;-55
2022/07/10 00:11:41;;;;;;;10.00;8.18;;;;;;;20.26;68.33;99765.91;1799650;80;21244;-55
2022/07/10 00:14:47;;;;;;;8.35;7.40;;;;;;;20.22;68.40;99767.50;1799611;80;21221;-55
2022/07/10 00:17:54;;;;;;;10.23;7.60;;;;;;;20.17;68.48;99767.41;1799233;79;21216;-54
2022/07/10 00:21:01;;;;;;;8.20;7.40;;;;;;;20.14;68.59;99768.45;1800956;78;21201;-52
2022/07/10 00:24:06;;;;;;;8.80;7.80;;;;;;;20.12;68.68;99770.06;1799889;79;21165;-53
2022/07/10 00:27:13;;;;;;;9.45;7.87;;;;;;;20.08;68.70;99762.49;1799015;79;21206;-55
2022/07/10 00:30:20;;;;;;;13.05;8.18;;;;;;;20.01;68.71;99753.50;1799483;79;21221;-54
2022/07/10 00:33:27;;;;;;;8.38;7.40;;;;;;;19.93;68.78;99753.91;1799844;79;21193;-54
2022/07/10 00:36:34;;;;;;;9.30;8.30;;;;;;;19.87;68.86;99766.04;1799631;80;21308;-54
2022/07/10 00:39:40;;;;;;;10.68;7.67;;;;;;;19.81;68.95;99759.53;1799377;80;21173;-55
2022/07/10 00:42:50;;;;;;;10.78;7.72;;;;;;;19.78;69.04;99768.91;1799705;79;21228;-54
2022/07/10 00:45:57;;;;;;;9.43;7.78;;;;;;;19.73;69.12;99768.27;1802378;79;21240;-54
2022/07/10 00:49:03;;;;;;;11.08;7.37;;;;;;;19.70;69.18;99759.59;1813841;79;21164;-54
2022/07/10 00:52:15;;;;;;;8.70;7.05;;;;;;;19.69;69.26;99755.14;1813332;79;21251;-54
2022/07/10 00:55:22;;;;;;;12.13;7.50;;;;;;;19.66;69.30;99752.87;1795868;78;21236;-54
2022/07/10 00:58:27;;;;;;;9.20;7.22;;;;;;;19.64;69.36;99750.88;1787646;80;21181;-54
2022/07/10 01:01:36;;;;;;;13.38;7.95;;;;;;;19.61;69.40;99743.05;1779325;80;21415;-54
2022/07/10 01:04:43;;;;;;;10.15;7.47;;;;;;;19.58;69.46;99743.55;1774250;80;21325;-53
2022/07/10 01:07:50;;;;;;;12.82;8.78;;;;;;;19.55;69.51;99735.16;1787594;80;21249;-55
2022/07/10 01:10:57;;;;;;;10.58;7.62;;;;;;;19.51;69.56;99733.98;1787627;80;21190;-55
2022/07/10 01:14:04;;;;;;;10.63;7.67;;;;;;;19.49;69.61;99739.50;1767522;81;21190;-54
2022/07/10 01:17:10;;;;;;;11.48;7.28;;;;;;;19.47;69.67;99733.34;1776274;80;21241;-54
2022/07/10 01:20:36;;;;;;;10.13;7.47;;;;;;;19.45;69.71;99732.75;1733274;81;21194;-54
2022/07/10 01:23:44;;;;;;;8.38;6.72;;;;;;;19.44;69.78;99731.08;1683699;84;21197;-54
2022/07/10 01:26:51;;;;;;;8.15;7.35;;;;;;;19.42;69.84;99720.22;1678420;85;21278;-54
2022/07/10 01:29:57;;;;;;;9.90;7.20;;;;;;;19.39;69.87;99721.26;1690715;83;21265;-54
2022/07/10 01:33:04;;;;;;;10.45;6.87;;;;;;;19.38;69.94;99717.63;1702547;84;21190;-56
2022/07/10 01:36:11;;;;;;;11.53;7.65;;;;;;;19.39;70.04;99719.87;1701796;84;21237;-55
2022/07/10 01:39:17;;;;;;;8.28;6.40;;;;;;;19.40;70.08;99722.39;1681492;84;21348;-55
2022/07/10 01:42:24;;;;;;;7.83;6.75;;;;;;;19.41;70.14;99714.92;1685382;85;21260;-53
2022/07/10 01:45:32;;;;;;;8.75;6.12;;;;;;;19.42;70.13;99715.20;1712927;83;21418;-54
2022/07/10 01:48:40;;;;;;;9.00;6.58;;;;;;;19.42;70.13;99719.37;1704205;83;21196;-55
2022/07/10 01:51:46;;;;;;;8.78;6.90;;;;;;;19.43;70.16;99716.88;1707608;83;21229;-54
2022/07/10 01:54:54;;;;;;;9.88;6.90;;;;;;;19.44;70.29;99718.02;1701966;83;21205;-55
2022/07/10 01:58:01;;;;;;;7.95;6.45;;;;;;;19.47;70.35;99709.22;1679681;84;21821;-55
2022/07/10 02:01:08;;;;;;;9.83;6.67;;;;;;;19.47;70.35;99710.60;1700524;84;21281;-55
2022/07/10 02:07:40;;;;;;;8.93;7.12;;;;;;;19.43;70.27;99714.10;1699388;83;21336;-54
2022/07/10 02:10:49;;;;;;;10.28;7.53;;;;;;;19.43;70.43;99707.16;1706221;83;21371;-54
2022/07/10 02:13:56;;;;;;;9.03;7.15;;;;;;;19.44;70.55;99709.69;1709498;83;21201;-54
2022/07/10 02:17:04;;;;;;;11.20;7.42;;;;;;;19.45;70.58;99706.38;1657836;86;21238;-54
2022/07/10 02:20:15;;;;;;;8.83;7.80;;;;;;;19.46;70.59;99706.66;1706463;83;21205;-55
2022/07/10 02:23:23;;;;;;;10.08;7.35;;;;;;;19.46;70.55;99701.11;1726018;80;21209;-54
2022/07/10 02:26:29;;;;;;;9.80;7.78;;;;;;;19.45;70.60;99703.59;1734659;82;21371;-54
2022/07/10 02:29:37;;;;;;;9.53;8.38;;;;;;;19.46;70.63;99690.00;1734772;82;21217;-55
2022/07/10 02:32:45;;;;;;;12.73;7.87;;;;;;;19.44;70.58;99689.44;1733986;82;21189;-55
2022/07/10 02:35:51;;;;;;;11.10;8.23;;;;;;;19.41;70.59;99695.48;1734862;82;21170;-55
2022/07/10 02:38:58;;;;;;;12.55;8.53;;;;;;;19.42;70.70;99697.16;1724135;83;21174;-55
2022/07/10 02:42:05;;;;;;;13.48;8.08;;;;;;;19.44;70.74;99699.97;1734738;82;21359;-55
2022/07/10 02:45:12;;;;;;;11.80;8.45;;;;;;;19.43;70.70;99696.91;1734208;82;21363;-56
2022/07/10 02:48:19;;;;;;;11.63;8.53;;;;;;;19.45;70.75;99689.72;1734603;82;21253;-55
2022/07/10 02:51:25;;;;;;;10.08;8.48;;;;;;;19.44;70.72;99688.05;1733868;82;21225;-54
2022/07/10 02:54:31;;;;;;;11.88;7.97;;;;;;;19.43;70.73;99684.95;1734185;82;21161;-55
2022/07/10 02:57:39;;;;;;;11.40;8.28;;;;;;;19.44;70.81;99685.27;1733855;82;21221;-55
2022/07/10 03:00:45;;;;;;;12.15;7.60;;;;;;;19.48;70.93;99678.11;1734198;82;21387;-53
2022/07/10 03:03:51;;;;;;;12.58;7.85;;;;;;;19.53;70.96;99678.20;1733951;82;21253;-53
2022/07/10 03:06:58;;;;;;;11.18;8.88;;;;;;;19.58;71.01;99680.54;1734087;82;21209;-55
2022/07/10 03:10:05;;;;;;;10.78;8.50;;;;;;;19.62;70.96;99685.88;1734150;82;21249;-55
2022/07/10 03:13:11;;;;;;;14.50;8.93;;;;;;;19.65;71.00;99687.29;1734280;82;21190;-54
2022/07/10 03:16:17;;;;;;;13.22;8.00;;;;;;;19.69;71.05;99680.16;1733948;82;21225;-54
2022/07/10 03:19:17;;;;;;;12.20;8.23;;;;;;;19.75;71.08;99673.05;1733863;83;21193;-54
2022/07/10 03:22:26;;;;;;;9.78;7.90;;;;;;;19.78;71.06;99668.91;1734048;82;21221;-54
2022/07/10 03:25:34;;;;;;;9.93;8.05;;;;;;;19.81;71.11;99667.02;1733872;83;21245;-56
2022/07/10 03:28:43;;;;;;;12.10;7.90;;;;;;;19.84;71.07;99659.02;1733942;83;21209;-55
2022/07/10 03:31:49;;;;;;;9.28;8.10;;;;;;;19.83;71.04;99648.17;1733828;83;21237;-55
2022/07/10 03:34:56;;;;;;;10.30;8.00;;;;;;;19.85;71.09;99645.98;1706818;81;21184;-56
2022/07/10 03:38:02;;;;;;;10.10;7.83;;;;;;;19.87;71.08;99641.03;1725792;81;21241;-55
2022/07/10 03:41:09;;;;;;;8.88;7.37;;;;;;;19.86;71.07;99638.78;1734008;82;21218;-56
2022/07/10 03:44:15;;;;;;;10.28;7.10;;;;;;;19.90;71.14;99637.73;1734053;82;21198;-54
2022/07/10 03:47:21;;;;;;;9.28;7.30;;;;;;;19.93;71.13;99635.27;1698446;82;21362;-54
2022/07/10 03:50:27;;;;;;;9.93;7.67;;;;;;;20.01;71.20;99635.41;1731104;82;21343;-55
2022/07/10 03:53:33;;;;;;;10.35;7.22;;;;;;;20.07;71.18;99631.60;1734202;83;21217;-54
2022/07/10 04:00:04;;;;;;;10.90;7.45;;;;;;;20.16;71.21;99628.70;1733770;82;21202;-55
2022/07/10 04:03:14;;;;;;;9.28;7.80;;;;;;;20.25;71.29;99634.10;1733848;83;21323;-56
2022/07/10 04:06:20;;;;;;;8.35;7.37;;;;;;;20.34;71.44;99627.84;1733925;83;21221;-54
2022/07/10 04:09:27;;;;;;;9.03;8.13;;;;;;;20.46;71.44;99634.69;1733846;83;21190;-54
2022/07/10 04:12:34;;;;;;;9.98;7.90;;;;;;;20.51;71.37;99640.31;1733815;83;21292;-54
2022/07/10 04:15:41;;;;;;;13.93;8.78;;;;;;;20.55;71.38;99644.28;1706623;82;21197;-54
2022/07/10 04:18:49;;;;;;;10.95;8.20;;;;;;;20.59;71.42;99646.28;1733658;82;21539;-54
2022/07/10 04:21:55;;;;;;;12.28;8.80;;;;;;;20.64;71.46;99649.09;1718730;82;21200;-54
2022/07/10 04:25:03;;;;;;;12.25;10.08;;;;;;;20.71;71.54;99651.69;1741939;81;21245;-54
2022/07/10 04:28:10;;;;;;;12.15;9.30;;;;;;;20.78;71.56;99657.91;1733300;82;21770;-54
2022/07/10 04:31:15;;;;;;;10.68;9.58;;;;;;;20.83;71.51;99661.58;1655430;85;21362;-55
2022/07/10 04:34:22;;;;;;;11.68;10.00;;;;;;;20.87;71.44;99667.47;1703986;84;21383;-56
2022/07/10 04:37:29;;;;;;;11.85;10.25;;;;;;;20.92;71.42;99671.72;1704909;83;21260;-54
2022/07/10 04:40:43;;;;;;;11.75;9.63;;;;;;;20.98;71.42;99679.63;1640657;86;21220;-55
2022/07/10 04:43:50;;;;;;;11.65;9.75;;;;;;;21.02;71.28;99684.41;1640602;86;21223;-56
2022/07/10 04:46:56;;;;;;;12.55;10.50;;;;;;;21.07;71.31;99693.36;1620975;87;21436;-55
2022/07/10 04:50:04;;;;;;;13.03;9.85;;;;;;;21.15;71.32;99701.25;1651049;87;21217;-56
2022/07/10 04:53:11;;;;;;;17.15;15.32;;;;;;;21.19;71.39;99699.06;1620836;88;21239;-55
2022/07/10 04:56:17;;;;;;;17.60;13.60;;;;;;;21.26;71.47;99699.72;1651087;85;21398;-55
2022/07/10 04:59:23;;;;;;;15.25;10.58;;;;;;;21.32;71.51;99695.87;1612110;87;21241;-54
2022/07/10 05:02:28;;;;;;;17.70;11.73;;;;;;;21.37;71.36;99693.70;1607164;88;21264;-55
2022/07/10 05:05:34;;;;;;;13.90;10.60;;;;;;;21.39;71.42;99690.92;1626227;87;21827;-55
2022/07/10 05:08:41;;;;;;;12.47;10.95;;;;;;;21.44;71.40;99700.73;1611774;88;21307;-55
2022/07/10 05:11:50;;;;;;;19.80;11.18;;;;;;;21.47;71.29;99696.59;1650689;85;21282;-56
2022/07/10 05:14:58;;;;;;;13.78;10.98;;;;;;;21.54;71.35;99687.45;1607333;88;21352;-56
2022/07/10 05:18:07;;;;;;;12.82;10.40;;;;;;;21.60;71.42;99678.03;1611589;88;21378;-57
2022/07/10 05:21:19;;;;;;;12.55;10.78;;;;;;;21.66;71.38;99658.32;1616629;87;21322;-56
2022/07/10 05:24:27;;;;;;;11.88;10.63;;;;;;;21.63;71.33;99644.92;1649872;86;21717;-58
2022/07/10 05:27:34;;;;;;;14.75;10.88;;;;;;;21.63;71.32;99644.92;1620679;87;21238;-57
2022/07/10 05:30:41;;;;;;;14.15;10.93;;;;;;;21.60;71.31;99642.67;1650973;85;21283;-57
2022/07/10 05:33:48;;;;;;;18.77;11.83;;;;;;;21.60;71.46;99643.22;1618912;88;21767;-58
2022/07/10 05:36:56;;;;;;;13.03;11.08;;;;;;;21.65;71.58;99630.19;1650990;85;21287;-57
2022/07/10 05:40:02;;;;;;;14.60;11.50;;;;;;;21.64;71.55;99621.55;1629575;84;21288;-59
2022/07/10 05:43:10;;;;;;;12.70;11.33;;;;;;;21.63;71.65;99633.78;1649069;87;21336;-56
2022/07/10 05:46:19;;;;;;;12.55;11.12;;;;;;;21.67;71.71;99645.24;1648842;85;21757;-57
2022/07/10 05:49:32;;;;;;;;;;;;;;;21.75;71.86;99645.64;1652024;87;21221;-57
2022/07/10 05:52:39;;;;;;;14.30;12.65;;;;;;;21.82;71.90;99654.59;1665245;85;20266;-57
2022/07/10 05:55:45;;;;;;;14.70;12.33;;;;;;;21.92;72.05;99650.50;1630223;86;21199;-55
2022/07/10 05:58:51;;;;;;;13.40;12.00;;;;;;;22.04;72.09;99653.11;1655612;85;21289;-58
2022/07/10 06:01:57;;;;;;;13.15;11.85;;;;;;;22.12;71.94;99646.45;1689654;83;21300;-55
2022/07/10 06:05:04;;;;;;;21.00;15.05;;;;;;;22.20;71.91;99650.14;1690473;85;21350;-57
2022/07/10 06:08:12;;;;;;;14.90;13.15;;;;;;;22.29;71.91;99646.30;1690547;85;21196;-56
2022/07/10 06:11:21;;;;;;;15.40;12.28;;;;;;;22.39;71.92;99628.78;1658555;85;21224;-56
2022/07/10 06:14:28;;;;;;;14.00;12.60;;;;;;;22.50;71.90;99622.97;1658742;86;21646;-57
2022/07/10 06:17:35;;;;;;;14.47;12.90;;;;;;;22.66;71.88;99619.75;1653264;85;21777;-56
2022/07/10 06:20:44;;;;;;;17.42;12.58;;;;;;;22.79;71.80;99626.19;1649364;85;21749;-57
2022/07/10 06:23:50;;;;;;;14.25;12.88;;;;;;;22.96;71.79;99619.85;1639549;87;21297;-58
2022/07/10 06:26:56;;;;;;;17.07;13.35;;;;;;;23.12;71.72;99614.59;1639892;86;21304;-58
2022/07/10 06:30:02;;;;;;;14.65;13.15;;;;;;;23.29;71.60;99616.61;1640013;87;21221;-58
2022/07/10 06:33:14;;;;;;;15.08;12.25;;;;;;;23.38;71.47;99607.95;1649718;87;21355;-58
2022/07/10 06:36:25;;;;;;;13.62;12.23;;;;;;;23.45;71.39;99611.32;1639725;85;21258;-58
2022/07/10 06:39:34;;;;;;;15.10;11.83;;;;;;;23.55;71.46;99606.56;1639255;87;21215;-59
2022/07/10 06:42:43;;;;;;;11.90;10.70;;;;;;;23.67;71.39;99598.46;1654036;84;21528;-58
2022/07/10 06:45:49;;;;;;;13.40;11.18;;;;;;;23.84;71.54;99590.61;1688813;85;21598;-58
2022/07/10 06:48:56;;;;;;;13.75;10.72;;;;;;;23.98;71.46;99593.98;1688899;85;21758;-57
2022/07/10 06:52:03;;;;;;;13.43;10.08;;;;;;;24.05;71.39;99597.89;1689625;85;21301;-57
2022/07/10 06:55:14;;;;;;;12.13;10.53;;;;;;;24.15;71.36;99599.28;1689856;85;21242;-59
2022/07/10 06:58:21;;;;;;;10.70;9.53;;;;;;;24.27;71.39;99602.59;1690291;85;21233;-57
2022/07/10 07:01:27;;;;;;;12.33;9.35;;;;;;;24.36;71.36;99589.14;1689612;84;21744;-57
2022/07/10 07:04:37;;;;;;;13.60;9.20;;;;;;;24.48;71.29;99580.44;1689473;85;21214;-58
2022/07/10 07:07:41;;;;;;;12.43;9.78;;;;;;;24.59;71.27;99573.09;1689574;84;21596;-57
2022/07/10 07:10:49;;;;;;;12.70;8.95;;;;;;;24.63;71.16;99583.16;1689703;85;21273;-58
2022/07/10 07:13:59;;;;;;;14.73;9.55;;;;;;;24.70;71.34;99581.77;1689256;83;21210;-58
2022/07/10 07:17:06;;;;;;;10.82;9.73;;;;;;;24.81;71.25;99577.80;1649574;85;21252;-57
2022/07/10 07:23:39;;;;;;;10.78;9.08;;;;;;;25.00;71.23;99582.16;1660432;86;21216;-57
2022/07/10 07:26:47;;;;;;;10.50;9.15;;;;;;;25.00;71.03;99581.61;1657624;85;21275;-55
2022/07/10 07:29:56;;;;;;;11.00;9.85;;;;;;;24.98;70.93;99571.80;1658252;86;21379;-55
2022/07/10 07:33:04;;;;;;;10.13;8.93;;;;;;;24.98;70.93;99573.20;1655932;86;21709;-57
2022/07/10 07:36:13;;;;;;;13.22;10.88;;;;;;;25.01;71.00;99575.42;1657784;85;21930;-57
2022/07/10 07:39:20;;;;;;;13.15;10.98;;;;;;;25.04;71.09;99571.48;1658024;86;21434;-58
2022/07/10 07:42:30;;;;;;;13.80;11.12;;;;;;;25.08;71.15;99573.97;1657860;82;21450;-57
2022/07/10 07:45:35;;;;;;;15.40;10.93;;;;;;;25.08;70.97;99565.30;1639516;86;21733;-56
2022/07/10 07:48:44;;;;;;;13.18;10.72;;;;;;;25.03;70.91;99565.63;1609999;89;21207;-56
2022/07/10 07:51:53;;;;;;;12.28;11.08;;;;;;;24.97;70.90;99564.55;1610011;88;21594;-57
2022/07/10 07:55:03;;;;;;;11.60;10.40;;;;;;;24.94;71.06;99558.94;1647978;86;21244;-58
2022/07/10 07:58:10;;;;;;;12.78;11.12;;;;;;;25.02;71.26;99559.73;1648309;86;21236;-57
2022/07/10 08:01:23;;;;;;;12.90;10.72;;;;;;;25.09;71.25;99545.41;1640438;85;21347;-56
2022/07/10 08:04:33;;;;;;;12.70;10.15;;;;;;;25.12;71.27;99549.02;1634305;87;21280;-57
2022/07/10 08:07:52;;;;;;;17.27;10.32;;;;;;;25.16;71.21;99549.28;1629087;87;21268;-56
2022/07/10 08:11:02;;;;;;;11.10;9.65;;;;;;;25.27;71.27;99564.34;1634832;85;21217;-57
2022/07/10 08:14:10;;;;;;;13.03;10.78;;;;;;;25.34;71.16;99564.05;1654104;86;21236;-56
2022/07/10 08:17:17;;;;;;;12.03;9.55;;;;;;;25.43;71.22;99560.88;1638842;86;21235;-57
2022/07/10 08:20:25;;;;;;;13.22;10.05;;;;;;;25.48;71.08;99566.45;1629511;88;21204;-56
2022/07/10 08:23:31;;;;;;;13.30;9.55;;;;;;;25.55;71.08;99552.36;1666843;85;21351;-59
2022/07/10 08:26:40;;;;;;;10.65;9.50;;;;;;;25.67;71.05;99557.01;1673938;85;21276;-57
2022/07/10 08:29:51;;;;;;;12.18;9.30;;;;;;;25.79;71.07;99560.28;1631702;86;21757;-56
2022/07/10 08:32:57;;;;;;;12.10;9.78;;;;;;;25.81;70.84;99551.02;1651701;86;21231;-57
2022/07/10 08:36:02;;;;;;;11.50;8.48;;;;;;;25.80;70.68;99558.32;1691654;82;21252;-55
2022/07/10 08:39:12;;;;;;;12.78;8.88;;;;;;;25.79;70.65;99560.28;1693144;83;21701;-56
2022/07/10 08:42:20;;;;;;;13.90;8.58;;;;;;;25.82;70.64;99554.62;1694834;84;21248;-56
2022/07/10 08:45:25;;;;;;;14.70;9.63;;;;;;;25.87;70.67;99565.80;1660492;85;21792;-56
2022/07/10 08:48:31;;;;;;;13.95;8.48;;;;;;;25.91;70.47;99575.32;1659932;86;21632;-56
2022/07/10 08:51:55;;;;;;;12.90;10.00;;;;;;;25.91;70.40;99576.72;1655863;85;21283;-57
2022/07/10 08:55:02;;;;;;;11.88;9.00;;;;;;;25.97;70.38;99574.95;1651186;85;21740;-56
2022/07/10 08:58:09;;;;;;;17.15;9.75;;;;;;;26.05;70.37;99577.14;1662468;86;21231;-56
2022/07/10 09:01:22;;;;;;;17.27;9.45;;;;;;;26.08;70.30;99579.94;1626677;85;21367;-56
2022/07/10 09:04:27;;;;;;;12.18;8.78;;;;;;;26.13;70.16;99590.53;1671117;85;21292;-57
2022/07/10 09:07:37;;;;;;;10.75;9.23;;;;;;;26.17;70.02;99591.63;1601441;88;21410;-57
2022/07/10 09:10:45;;;;;;;13.72;9.60;;;;;;;26.22;70.01;99595.78;1582633;88;21783;-57
2022/07/10 09:14:00;;;;;;;10.82;9.40;;;;;;;26.37;70.08;99591.95;1593347;89;21320;-58
2022/07/10 09:17:07;;;;;;;12.25;9.68;;;;;;;26.52;70.03;99591.78;1603086;88;21260;-58
2022/07/10 09:20:16;;;;;;;13.78;9.40;;;;;;;26.61;69.89;99595.59;1630496;86;21371;-57
2022/07/10 09:23:27;;;;;;;14.28;8.65;;;;;;;26.71;69.92;99608.70;1633521;87;21718;-58
2022/07/10 09:26:35;;;;;;;12.73;8.53;;;;;;;26.74;69.79;99611.75;1648499;85;21300;-58
2022/07/10 09:29:59;;;;;;;14.87;9.95;;;;;;;26.74;69.73;99614.56;1645483;87;21241;-58
2022/07/10 09:33:27;;;;;;;13.75;8.35;;;;;;;26.83;69.71;99606.32;1635996;88;21226;-56
2022/07/10 09:36:36;;;;;;;16.95;9.33;;;;;;;26.76;69.48;99617.92;1665933;84;21275;-58
2022/07/10 09:39:43;;;;;;;12.70;9.35;;;;;;;26.64;69.44;99622.26;1643348;86;21223;-58
2022/07/10 09:42:53;;;;;;;11.38;8.98;;;;;;;26.48;69.32;99621.61;1650203;86;21255;-55
2022/07/10 09:45:59;;;;;;;12.47;8.98;;;;;;;26.30;69.28;99617.59;1684222;83;21402;-57
2022/07/10 09:49:20;;;;;;;9.83;8.78;;;;;;;26.13;69.27;99627.00;1688451;85;21184;-57
2022/07/10 09:52:25;;;;;;;10.53;8.45;;;;;;;26.09;69.51;99618.08;1684124;83;21769;-58
2022/07/10 09:55:37;;;;;;;10.32;8.48;;;;;;;26.19;69.72;99618.83;1679517;85;21288;-58
2022/07/10 09:58:51;;;;;;;12.90;8.70;;;;;;;26.34;69.70;99606.02;1672116;83;21345;-57
2022/07/10 10:01:58;;;;;;;;;;;;;;;26.48;69.68;99608.97;1713555;82;21412;-57
2022/07/10 10:05:04;;;;;;;11.70;8.40;;;;;;;26.57;69.47;99605.77;1704160;84;20568;-56
2022/07/10 10:08:13;;;;;;;12.15;8.65;;;;;;;26.56;69.35;99604.66;1766553;81;21700;-57
2022/07/10 10:11:21;;;;;;;10.98;8.58;;;;;;;26.52;69.11;99584.77;1765704;81;21261;-57
2022/07/10 10:14:28;;;;;;;10.70;8.78;;;;;;;26.43;69.11;99572.53;1766744;81;21245;-57
2022/07/10 10:17:37;;;;;;;16.65;8.88;;;;;;;26.27;68.84;99576.64;1766254;81;21265;-56
2022/07/10 10:20:45;;;;;;;9.28;7.92;;;;;;;26.11;68.87;99582.15;1765859;81;21360;-57
2022/07/10 10:23:59;;;;;;;10.28;8.78;;;;;;;26.00;68.83;99582.83;1748537;80;21520;-57
2022/07/10 10:27:06;;;;;;;11.55;8.75;;;;;;;25.89;68.90;99577.02;1786956;78;21246;-56
2022/07/10 10:30:14;;;;;;;13.38;8.43;;;;;;;25.93;68.99;99571.63;1797301;78;21216;-57
2022/07/10 10:33:45;;;;;;;12.45;10.03;;;;;;;25.92;68.98;99568.56;1792263;78;21705;-56
2022/07/10 10:36:52;;;;;;;12.45;9.03;;;;;;;25.92;68.94;99565.77;1797707;78;21194;-58
2022/07/10 10:40:03;;;;;;;11.50;8.98;;;;;;;25.86;69.07;99566.95;1802150;78;21195;-58
2022/07/10 10:43:28;;;;;;;12.95;8.98;;;;;;;25.88;69.17;99565.51;1791062;78;21214;-58
2022/07/10 10:46:35;;;;;;;17.70;9.50;;;;;;;25.94;69.27;99570.52;1714884;82;21208;-57
2022/07/10 10:50:02;;;;;;;15.15;9.45;;;;;;;25.99;69.17;99584.50;1728034;81;21242;-57
2022/07/10 10:53:08;;;;;;;10.53;8.43;;;;;;;25.96;69.00;99606.09;1711132;84;21356;-59
2022/07/10 10:56:25;;;;;;;9.68;8.33;;;;;;;25.85;68.93;99622.19;1779332;80;21417;-58
2022/07/10 11:00:06;;;;;;;13.65;7.80;;;;;;;25.75;68.77;99650.91;1773148;80;21262;-57
2022/07/10 11:03:27;;;;;;;11.03;8.50;;;;;;;25.62;68.69;99663.62;1768645;78;21191;-57
2022/07/10 11:06:57;;;;;;;10.40;8.33;;;;;;;25.55;68.81;99681.31;1801757;79;21220;-58
2022/07/10 11:10:39;;;;;;;15.78;8.58;;;;;;;25.48;68.93;99694.80;1792462;79;21241;-57
2022/07/10 11:13:47;;;;;;;13.85;9.23;;;;;;;25.42;69.00;99698.77;1806315;79;21705;-58
2022/07/10 11:16:54;;;;;;;13.95;10.00;;;;;;;25.37;69.10;99695.17;1758918;81;21285;-57
2022/07/10 11:20:00;;;;;;;13.48;9.35;;;;;;;25.31;69.17;99680.89;1758602;81;21183;-56
2022/07/10 11:23:19;;;;;;;16.23;9.68;;;;;;;25.20;69.19;99658.26;1759048;81;21858;-56
2022/07/10 11:26:46;;;;;;;21.37;12.10;;;;;;;25.00;68.85;99646.58;1758927;81;21194;-57
2022/07/10 11:29:54;;;;;;;13.78;10.65;;;;;;;24.79;68.89;99626.24;1758843;81;21202;-57
2022/07/10 11:33:02;;;;;;;15.85;11.45;;;;;;;24.53;68.90;99609.22;1744398;81;21850;-56
2022/07/10 11:36:10;;;;;;;13.93;11.80;;;;;;;24.32;69.05;99592.25;1758681;81;21246;-56
2022/07/10 11:39:17;;;;;;;15.05;12.73;;;;;;;24.16;69.22;99585.02;1721351;81;21190;-57
2022/07/10 11:42:24;;;;;;;15.32;13.18;;;;;;;24.02;69.40;99570.50;1771159;80;21199;-56
2022/07/10 11:45:38;;;;;;;14.68;12.25;;;;;;;23.87;69.68;99562.09;1790138;80;21199;-56
2022/07/10 11:48:56;;;;;;;16.95;11.90;;;;;;;23.70;69.97;99561.02;1790102;80;21265;-57
2022/07/10 11:52:00;;;;;;;15.88;13.78;;;;;;;23.58;70.15;99574.42;1790114;80;21226;-57
2022/07/10 11:55:07;;;;;;;17.87;13.38;;;;;;;23.55;70.33;99583.36;1789906;80;21547;-57
2022/07/10 11:58:22;;;;;;;18.82;14.20;;;;;;;23.56;70.42;99582.27;1774815;80;21540;-57
2022/07/10 12:01:32;;;;;;;17.90;14.45;;;;;;;23.57;70.49;99567.16;1788028;80;21171;-58
2022/07/10 12:04:40;;;;;;;15.03;13.48;;;;;;;23.52;70.54;99563.81;1782397;79;21222;-57
2022/07/10 12:07:49;;;;;;;16.60;13.45;;;;;;;23.48;70.74;99564.66;1766023;81;21241;-58
2022/07/10 12:10:55;;;;;;;15.98;13.75;;;;;;;23.48;70.87;99573.05;1763035;81;21226;-57
2022/07/10 12:14:04;;;;;;;14.87;13.30;;;;;;;23.46;70.90;99572.47;1766440;81;21719;-58
2022/07/10 12:17:23;;;;;;;15.03;12.50;;;;;;;23.47;70.91;99581.13;1744795;81;22063;-57
2022/07/10 12:20:29;;;;;;;14.68;11.90;;;;;;;23.47;70.90;99583.92;1766515;81;21170;-57
2022/07/10 12:23:40;;;;;;;16.75;12.00;;;;;;;23.48;70.88;99578.62;1766041;81;21175;-57
2022/07/10 12:26:48;;;;;;;13.03;9.63;;;;;;;23.49;70.87;99571.91;1766328;81;21272;-58
2022/07/10 12:29:54;;;;;;;11.55;10.20;;;;;;;23.52;70.77;99566.61;1766100;81;21260;-58
2022/07/10 12:33:02;;;;;;;15.18;10.82;;;;;;;23.51;70.66;99566.34;1766994;81;21173;-57
2022/07/10 12:36:12;;;;;;;15.28;10.00;;;;;;;23.60;70.78;99573.04;1780031;78;21192;-58
2022/07/10 12:39:30;;;;;;;13.28;10.10;;;;;;;23.77;70.76;99564.92;1804758;78;21161;-58
2022/07/10 12:42:39;;;;;;;19.20;9.25;;;;;;;23.97;70.85;99562.96;1732941;82;21357;-57
2022/07/10 12:45:51;;;;;;;12.75;9.48;;;;;;;;;;1575728;90;21266;-56
2022/07/10 12:49:16;;;;;;;12.28;9.30;;;;;;;24.39;70.62;99553.59;1615245;88;21223;-58
2022/07/10 12:52:45;;;;;;;13.83;8.93;;;;;;;24.50;70.57;99555.22;1624426;86;21238;-57
2022/07/10 12:55:52;;;;;;;10.75;8.78;;;;;;;24.64;70.48;99560.47;1644785;86;21365;-57
2022/07/10 12:59:02;;;;;;;11.93;8.85;;;;;;;24.73;70.35;99547.60;1633993;86;21227;-56
2022/07/10 13:02:29;;;;;;;12.82;9.30;;;;;;;24.82;70.25;99550.06;1660643;86;21356;-57
2022/07/10 13:05:47;;;;;;;13.55;9.53;;;;;;;24.90;70.17;99550.86;1660222;86;21227;-57
2022/07/10 13:08:54;;;;;;;12.68;9.78;;;;;;;25.05;70.28;99542.34;1626483;87;21221;-58
2022/07/10 13:12:04;;;;;;;11.15;8.60;;;;;;;25.19;70.23;99536.94;1746468;81;21246;-57
2022/07/10 13:15:21;;;;;;;13.40;9.35;;;;;;;25.31;70.12;99537.39;1759018;81;21821;-57
2022/07/10 13:18:30;;;;;;;16.30;8.33;;;;;;;25.38;69.94;99540.74;1754185;80;21228;-56
2022/07/10 13:21:38;;;;;;;13.20;8.68;;;;;;;25.45;69.83;99535.63;1739180;80;21283;-57
2022/07/10 13:24:47;;;;;;;12.33;8.03;;;;;;;25.55;69.83;99526.28;1740758;82;21259;-57
2022/07/10 13:27:53;;;;;;;10.03;8.30;;;;;;;25.65;69.74;99520.59;1747960;82;21319;-57
2022/07/10 13:31:02;;;;;;;9.95;7.80;;;;;;;25.61;69.48;99521.74;1746238;82;21240;-57
2022/07/10 13:34:13;;;;;;;11.03;8.50;;;;;;;25.56;69.41;99526.58;1747748;82;21271;-57
2022/07/10 13:37:20;;;;;;;11.57;8.60;;;;;;;25.49;69.37;99512.05;1726260;82;21211;-56
2022/07/10 13:40:27;;;;;;;9.60;7.60;;;;;;;25.53;69.44;99521.56;1726298;82;21183;-56
2022/07/10 13:43:34;;;;;;;8.45;7.12;;;;;;;25.56;69.38;99513.97;1746929;82;21200;-55
2022/07/10 13:46:41;;;;;;;8.18;6.47;;;;;;;25.56;69.35;99517.58;1740321;82;21236;-56
2022/07/10 13:49:47;;;;;;;12.25;6.97;;;;;;;25.65;69.41;99510.23;1743890;82;21791;-56
2022/07/10 13:52:58;;;;;;;10.15;6.62;;;;;;;25.77;69.32;99514.02;1747562;80;21260;-55
2022/07/10 13:56:07;;;;;;;8.18;7.05;;;;;;;25.92;69.33;99508.27;1760786;80;21727;-56
2022/07/10 13:59:16;;;;;;;12.00;6.97;;;;;;;26.15;69.22;99512.51;1725216;80;21250;-56
2022/07/10 14:02:27;;;;;;;12.05;7.55;;;;;;;26.36;69.10;99507.48;1757014;81;21226;-56
2022/07/10 14:05:35;;;;;;;11.68;6.58;;;;;;;26.59;68.90;99505.23;1723581;82;21239;-57
2022/07/10 14:08:45;;;;;;;10.05;7.35;;;;;;;26.63;68.56;99506.28;1707885;82;21208;-55
2022/07/10 14:11:54;;;;;;;8.58;7.22;;;;;;;26.54;68.42;99506.70;1724342;82;21255;-56
2022/07/10 14:15:04;;;;;;;11.10;7.22;;;;;;;26.60;68.55;99508.84;1743482;82;21276;-57
2022/07/10 14:18:10;;;;;;;10.32;7.03;;;;;;;26.63;68.40;99521.73;1730554;82;21188;-56
2022/07/10 14:21:17;;;;;;;8.00;6.72;;;;;;;26.50;68.15;99528.06;1727929;81;21212;-58
2022/07/10 14:24:25;;;;;;;10.13;7.03;;;;;;;26.32;68.07;99533.91;1738698;82;21582;-59
2022/07/10 14:27:32;;;;;;;11.48;7.55;;;;;;;26.14;68.01;99529.09;1742991;82;21792;-57
2022/07/10 14:30:39;;;;;;;9.93;7.25;;;;;;;26.07;68.17;99515.97;1720924;82;21182;-57
2022/07/10 14:33:46;;;;;;;10.60;7.60;;;;;;;26.01;68.23;99522.77;1738329;82;21240;-55
2022/07/10 14:36:55;;;;;;;10.32;7.33;;;;;;;25.89;68.12;99515.31;1722100;83;21235;-57
2022/07/10 14:40:06;;;;;;;8.98;7.22;;;;;;;25.81;68.16;99523.52;1712875;82;21753;-54
2022/07/10 14:43:13;;;;;;;11.22;7.37;;;;;;;25.64;68.14;99518.94;1759049;80;21189;-56
2022/07/10 14:46:21;;;;;;;8.60;6.42;;;;;;;25.53;68.24;99536.98;1752525;80;21230;-55
2022/07/10 14:49:26;;;;;;;7.35;6.10;;;;;;;25.40;68.12;99531.48;1763079;80;21562;-55